Time;durP1;ratioP1;P1;durP2;ratioP2;P2;SDS_P1;SDS_P2;PMS_P1;PMS_P2;Temp;Humidity;BMP_temperature;BMP_pressure;BME280_temperature;BME280_humidity;BME280_pressure;Samples;Min_cycle;Max_cycle;Signal;HPM_P1;HPM_P2
2024/02/25 00:00:38;;;;;;;13.80;9.48;;;;;22.00;99087.00;;;;2068311;28;20211;-71
2024/02/25 00:01:38;;;;;;;12.47;9.67;;;;;22.00;99084.00;;;;2064113;28;20210;-71
2024/02/25 00:02:41;;;;;;;14.43;9.97;;;;;22.00;99086.00;;;;2069765;28;20233;-71
2024/02/25 00:03:41;;;;;;;11.23;8.20;;;;;22.00;99083.00;;;;2070044;28;20222;-71
2024/02/25 00:04:41;;;;;;;14.67;9.10;;;;;22.00;99078.00;;;;2071021;28;20294;-71
2024/02/25 00:05:42;;;;;;;13.30;9.50;;;;;22.00;99084.00;;;;2060667;28;20701;-71
2024/02/25 00:06:45;;;;;;;12.20;8.53;;;;;22.00;99090.00;;;;2066555;28;20360;-71
2024/02/25 00:07:46;;;;;;;10.88;8.23;;;;;22.00;99080.00;;;;2070163;28;20273;-71
2024/02/25 00:08:46;;;;;;;11.55;8.25;;;;;22.00;99080.00;;;;2068948;28;20214;-71
2024/02/25 00:09:47;;;;;;;13.70;9.30;;;;;22.00;99081.00;;;;2070836;28;20268;-71
2024/02/25 00:10:47;;;;;;;13.77;9.10;;;;;22.00;99082.00;;;;2060730;28;20214;-71
2024/02/25 00:11:47;;;;;;;11.70;8.37;;;;;22.00;99081.00;;;;2070027;28;20293;-71
2024/02/25 00:12:47;;;;;;;11.57;8.00;;;;;22.00;99084.00;;;;2069797;28;20210;-71
2024/02/25 00:13:48;;;;;;;12.40;8.30;;;;;22.00;99084.00;;;;2069562;28;20269;-71
2024/02/25 00:14:48;;;;;;;11.87;7.80;;;;;21.90;98543.00;;;;2072534;28;20206;-71
2024/02/25 00:15:48;;;;;;;11.93;8.23;;;;;22.00;99081.00;;;;2061995;28;20333;-71
2024/02/25 00:16:49;;;;;;;11.63;8.07;;;;;22.00;99079.00;;;;2067647;28;20522;-71
2024/02/25 00:17:49;;;;;;;11.40;7.70;;;;;21.80;99080.00;;;;2067919;28;20225;-71
2024/02/25 00:18:49;;;;;;;10.37;7.93;;;;;21.90;99076.00;;;;2071087;28;20225;-70
2024/02/25 00:19:50;;;;;;;11.47;8.60;;;;;21.90;99069.00;;;;2072547;28;20217;-71
2024/02/25 00:20:50;;;;;;;11.67;8.40;;;;;21.90;99063.00;;;;2061699;28;20217;-71
2024/02/25 00:21:50;;;;;;;9.00;6.80;;;;;21.90;99064.00;;;;2071988;28;20337;-70
2024/02/25 00:22:51;;;;;;;12.47;7.67;;;;;21.90;99062.00;;;;2069507;28;20210;-71
2024/02/25 00:23:51;;;;;;;11.87;8.10;;;;;21.90;99061.00;;;;2070321;28;20646;-71
2024/02/25 00:24:51;;;;;;;11.00;7.10;;;;;21.90;99062.00;;;;2072461;28;20226;-71
2024/02/25 00:25:52;;;;;;;12.43;7.80;;;;;21.90;99018.00;;;;2061264;28;20269;-70
2024/02/25 00:26:52;;;;;;;10.40;7.50;;;;;21.90;99055.00;;;;2063583;28;20231;-71
2024/02/25 00:27:52;;;;;;;9.70;6.90;;;;;21.90;99057.00;;;;2063694;28;20233;-71
2024/02/25 00:28:53;;;;;;;12.73;7.57;;;;;21.90;99032.00;;;;2070984;28;20210;-71
2024/02/25 00:29:53;;;;;;;10.27;6.90;;;;;21.90;99056.00;;;;2068237;28;20278;-71
2024/02/25 00:30:53;;;;;;;11.57;7.43;;;;;21.90;99048.00;;;;2052646;28;20222;-71
2024/02/25 00:31:54;;;;;;;10.60;6.93;;;;;21.90;99053.00;;;;2072285;28;20221;-71
2024/02/25 00:32:54;;;;;;;10.47;7.97;;;;;21.90;99043.00;;;;2072302;28;20218;-71
2024/02/25 00:33:54;;;;;;;10.10;7.03;;;;;21.90;99031.00;;;;2068334;28;20237;-70
2024/02/25 00:34:55;;;;;;;9.87;6.53;;;;;21.90;99050.00;;;;2072086;28;20245;-71
2024/02/25 00:35:55;;;;;;;11.17;6.90;;;;;21.90;98927.00;;;;2061641;28;20249;-71
2024/02/25 00:36:56;;;;;;;12.10;6.90;;;;;21.90;99055.00;;;;2071152;28;20228;-71
2024/02/25 00:37:56;;;;;;;9.70;6.50;;;;;21.90;99044.00;;;;2071705;28;20214;-71
2024/02/25 00:38:57;;;;;;;9.87;6.67;;;;;21.90;99048.00;;;;2071867;28;20221;-71
2024/02/25 00:39:58;;;;;;;9.30;6.25;;;;;21.90;99049.00;;;;2072536;28;20229;-71
2024/02/25 00:40:58;;;;;;;12.87;7.17;;;;;21.90;99055.00;;;;2061503;28;20267;-71
2024/02/25 00:42:01;;;;;;;10.00;6.50;;;;;21.90;99056.00;;;;2072374;28;20263;-71
2024/02/25 00:43:02;;;;;;;9.35;6.28;;;;;21.90;99051.00;;;;2071835;28;20212;-71
2024/02/25 00:44:02;;;;;;;8.83;6.07;;;;;21.80;99049.00;;;;2072063;28;20229;-70
2024/02/25 00:45:03;;;;;;;7.93;5.90;;;;;21.80;99047.00;;;;2071783;28;20218;-71
2024/02/25 00:46:03;;;;;;;8.63;6.23;;;;;21.90;99050.00;;;;2061559;28;20341;-72
2024/02/25 00:47:04;;;;;;;8.77;6.60;;;;;21.80;98947.00;;;;2070930;28;20457;-73
2024/02/25 00:48:04;;;;;;;9.40;6.10;;;;;21.90;99047.00;;;;2062589;28;20218;-71
2024/02/25 00:49:05;;;;;;;8.57;5.80;;;;;21.90;99052.00;;;;2054987;28;20219;-71
2024/02/25 00:50:05;;;;;;;10.80;6.73;;;;;21.80;99042.00;;;;2054976;28;20237;-72
2024/02/25 00:51:06;;;;;;;9.47;7.00;;;;;21.80;99039.00;;;;2053549;28;20274;-71
2024/02/25 00:52:06;;;;;;;7.20;5.80;;;;;21.80;99048.00;;;;2070946;28;20471;-71
2024/02/25 00:53:07;;;;;;;9.20;5.93;;;;;21.80;99054.00;;;;2071333;28;20218;-71
2024/02/25 00:54:07;;;;;;;7.60;5.30;;;;;21.80;99040.00;;;;2072046;28;20217;-71
2024/02/25 00:55:08;;;;;;;9.33;6.47;;;;;21.80;99028.00;;;;2071440;28;20841;-71
2024/02/25 00:56:08;;;;;;;8.60;5.73;;;;;21.80;99033.00;;;;2061831;28;20313;-71
2024/02/25 00:57:08;;;;;;;9.37;6.20;;;;;21.80;99037.00;;;;2070241;28;20218;-71
2024/02/25 00:58:09;;;;;;;8.93;5.67;;;;;21.80;99031.00;;;;2071757;28;20253;-71
2024/02/25 00:59:09;;;;;;;9.10;6.17;;;;;21.80;99020.00;;;;2062686;28;20214;-70
2024/02/25 01:00:10;;;;;;;8.30;5.40;;;;;21.80;99020.00;;;;2054942;28;20209;-72
2024/02/25 01:01:16;;;;;;;7.80;5.30;;;;;21.80;99027.00;;;;2053555;28;20226;-71
2024/02/25 01:02:16;;;;;;;7.80;5.20;;;;;21.80;99023.00;;;;2071580;28;20218;-71
2024/02/25 01:03:17;;;;;;;9.03;5.67;;;;;21.80;99026.00;;;;2063319;28;20227;-71
2024/02/25 01:04:21;;;;;;;6.57;5.03;;;;;21.70;99024.00;;;;2061387;28;20230;-71
2024/02/25 01:05:21;;;;;;;7.15;4.90;;;;;21.80;99015.00;;;;2061924;28;20226;-71
2024/02/25 01:06:22;;;;;;;8.27;5.57;;;;;21.80;99019.00;;;;2053574;28;20237;-70
2024/02/25 01:07:22;;;;;;;6.90;4.90;;;;;21.80;99024.00;;;;2064989;28;20280;-71
2024/02/25 01:08:22;;;;;;;8.37;5.50;;;;;21.80;98905.00;;;;2070318;28;20218;-70
2024/02/25 01:09:23;;;;;;;7.57;4.70;;;;;21.80;99014.00;;;;2062899;28;20234;-70
2024/02/25 01:10:23;;;;;;;8.00;5.20;;;;;21.70;99011.00;;;;2062928;28;20211;-70
2024/02/25 01:11:23;;;;;;;7.10;4.90;;;;;21.80;99016.00;;;;2061521;28;20237;-71
2024/02/25 01:12:24;;;;;;;7.40;5.60;;;;;21.80;99009.00;;;;2071110;28;20222;-71
2024/02/25 01:13:24;;;;;;;6.77;4.47;;;;;21.80;99015.00;;;;2072184;28;20214;-70
2024/02/25 01:14:24;;;;;;;7.60;4.83;;;;;21.70;99017.00;;;;2071042;28;20264;-71
2024/02/25 01:15:25;;;;;;;7.57;5.30;;;;;21.70;99010.00;;;;2061399;28;20227;-71
2024/02/25 01:16:25;;;;;;;7.17;4.53;;;;;21.80;99022.00;;;;2052224;28;20254;-70
2024/02/25 01:17:25;;;;;;;7.67;4.77;;;;;21.70;99019.00;;;;2071970;28;20226;-70
2024/02/25 01:18:26;;;;;;;6.80;4.83;;;;;21.70;99003.00;;;;2067510;28;20241;-70
2024/02/25 01:19:26;;;;;;;7.20;4.57;;;;;21.70;99014.00;;;;2070894;28;20230;-70
2024/02/25 01:20:26;;;;;;;7.00;5.40;;;;;21.70;99009.00;;;;2063482;28;20242;-71
2024/02/25 01:21:26;;;;;;;6.73;4.73;;;;;21.70;98996.00;;;;2060188;28;20223;-71
2024/02/25 01:22:27;;;;;;;7.27;4.80;;;;;21.70;98995.00;;;;2055162;28;20226;-70
2024/02/25 01:23:27;;;;;;;8.20;4.63;;;;;21.70;99000.00;;;;2054540;28;20231;-71
2024/02/25 01:24:27;;;;;;;8.87;4.73;;;;;21.70;99001.00;;;;2071173;28;20217;-71
2024/02/25 01:25:28;;;;;;;5.90;4.23;;;;;21.70;98993.00;;;;2071762;28;20264;-71
2024/02/25 01:26:28;;;;;;;7.37;4.90;;;;;21.70;98998.00;;;;2057542;28;20301;-70
2024/02/25 01:27:28;;;;;;;6.17;4.30;;;;;21.70;99003.00;;;;2063049;28;20222;-71
2024/02/25 01:28:30;;;;;;;7.03;4.53;;;;;21.70;99000.00;;;;2061924;28;20219;-70
2024/02/25 01:29:30;;;;;;;6.38;4.55;;;;;21.70;99012.00;;;;2064869;28;20341;-71
2024/02/25 01:30:30;;;;;;;7.20;4.70;;;;;21.70;99006.00;;;;2071917;28;20318;-70
2024/02/25 01:31:31;;;;;;;5.57;3.70;;;;;21.70;98991.00;;;;2060506;28;20219;-71
2024/02/25 01:32:31;;;;;;;6.30;3.60;;;;;21.70;99007.00;;;;2052279;28;20223;-71
2024/02/25 01:33:31;;;;;;;6.30;4.30;;;;;21.70;99003.00;;;;2062146;28;20211;-71
2024/02/25 01:34:32;;;;;;;8.00;4.93;;;;;21.70;98970.00;;;;2071798;28;20297;-71
2024/02/25 01:35:32;;;;;;;6.43;4.23;;;;;21.70;98994.00;;;;2064949;28;20226;-71
2024/02/25 01:36:32;;;;;;;5.60;3.93;;;;;21.70;99006.00;;;;2059009;28;20292;-71
2024/02/25 01:37:33;;;;;;;6.37;4.20;;;;;21.70;99004.00;;;;2071240;28;20226;-71
2024/02/25 01:38:33;;;;;;;6.00;4.03;;;;;21.70;98999.00;;;;2060831;28;20365;-71
2024/02/25 01:39:34;;;;;;;7.17;4.50;;;;;21.60;98995.00;;;;2063049;28;20333;-71
2024/02/25 01:40:34;;;;;;;6.73;4.00;;;;;21.60;98740.00;;;;2062088;28;20226;-71
2024/02/25 01:41:34;;;;;;;4.50;3.13;;;;;21.70;99003.00;;;;2052073;28;20222;-71
2024/02/25 01:42:36;;;;;;;6.60;4.07;;;;;21.60;98967.00;;;;2063109;28;20370;-71
2024/02/25 01:43:39;;;;;;;5.75;3.97;;;;;21.70;98952.00;;;;2046529;28;21032;-71
2024/02/25 01:44:53;;;;;;;5.82;4.10;;;;;21.60;98984.00;;;;2048819;28;20223;-71
2024/02/25 01:45:54;;;;;;;5.88;3.67;;;;;21.70;98992.00;;;;2044236;28;20287;-70
2024/02/25 01:46:55;;;;;;;5.80;3.93;;;;;21.70;98991.00;;;;2061515;28;20759;-70
2024/02/25 01:47:56;;;;;;;5.25;3.40;;;;;21.60;98992.00;;;;2065779;28;20221;-71
2024/02/25 01:48:56;;;;;;;6.10;3.70;;;;;21.60;98832.00;;;;2070642;28;20225;-70
2024/02/25 01:49:57;;;;;;;6.70;3.50;;;;;21.60;98982.00;;;;2063187;28;20462;-71
2024/02/25 01:50:57;;;;;;;5.10;3.60;;;;;21.60;98991.00;;;;2051924;28;20214;-71
2024/02/25 01:51:57;;;;;;;5.67;3.33;;;;;21.60;98980.00;;;;2063009;28;20211;-71
2024/02/25 01:52:58;;;;;;;5.77;3.33;;;;;21.30;98981.00;;;;2064482;28;20233;-70
2024/02/25 01:53:59;;;;;;;4.22;3.00;;;;;21.60;98986.00;;;;2057572;28;20698;-71
2024/02/25 01:54:59;;;;;;;6.27;3.80;;;;;21.60;98990.00;;;;2062958;28;20217;-71
2024/02/25 01:55:59;;;;;;;5.30;3.77;;;;;21.60;98882.00;;;;2045500;28;20235;-71
2024/02/25 01:57:00;;;;;;;5.30;3.50;;;;;21.60;98994.00;;;;2054377;28;20211;-71
2024/02/25 01:58:01;;;;;;;5.73;3.60;;;;;21.60;98894.00;;;;2054498;28;20227;-71
2024/02/25 01:59:02;;;;;;;5.10;3.40;;;;;21.60;98998.00;;;;2054659;28;20223;-70
2024/02/25 02:00:02;;;;;;;5.30;3.47;;;;;21.60;98981.00;;;;2055114;28;20639;-71
2024/02/25 02:01:03;;;;;;;5.40;3.00;;;;;21.60;98998.00;;;;2043636;28;20315;-71
2024/02/25 02:02:03;;;;;;;5.17;3.27;;;;;21.60;98993.00;;;;2063094;28;20219;-71
2024/02/25 02:03:04;;;;;;;4.63;2.70;;;;;21.60;98981.00;;;;2070448;28;20273;-70
2024/02/25 02:04:04;;;;;;;4.77;3.20;;;;;21.60;98986.00;;;;2062983;28;20246;-71
2024/02/25 02:05:05;;;;;;;5.70;3.53;;;;;21.60;98985.00;;;;2062828;28;20718;-71
2024/02/25 02:06:05;;;;;;;4.50;3.10;;;;;21.60;98984.00;;;;2060673;28;20241;-71
2024/02/25 02:07:06;;;;;;;5.60;3.30;;;;;21.60;98981.00;;;;2062992;28;20218;-71
2024/02/25 02:08:07;;;;;;;4.43;3.30;;;;;21.60;98990.00;;;;2054138;28;20276;-70
2024/02/25 02:09:07;;;;;;;8.03;3.63;;;;;21.60;98978.00;;;;2054259;28;20227;-70
2024/02/25 02:10:10;;;;;;;5.13;3.00;;;;;21.20;98930.00;;;;2053862;28;20500;-71
2024/02/25 02:11:17;;;;;;;4.85;3.08;;;;;21.50;98981.00;;;;2051472;28;20219;-71
2024/02/25 02:12:17;;;;;;;6.47;3.78;;;;;21.50;98931.00;;;;2062358;28;20222;-71
2024/02/25 02:13:18;;;;;;;5.70;2.90;;;;;21.50;98980.00;;;;2061877;28;20219;-71
2024/02/25 02:14:19;;;;;;;4.35;3.13;;;;;21.60;98967.00;;;;2063056;28;20269;-70
2024/02/25 02:15:19;;;;;;;5.60;3.20;;;;;21.60;98985.00;;;;2062912;28;20261;-71
2024/02/25 02:16:19;;;;;;;5.43;3.40;;;;;21.50;98976.00;;;;2052217;28;20257;-71
2024/02/25 02:17:21;;;;;;;6.30;3.30;;;;;21.50;98973.00;;;;2068414;28;20225;-71
2024/02/25 02:18:22;;;;;;;5.18;2.88;;;;;21.50;98983.00;;;;2069921;28;20690;-71
2024/02/25 02:19:23;;;;;;;4.78;3.20;;;;;21.60;98691.00;;;;2071495;28;20717;-70
2024/02/25 02:20:23;;;;;;;5.10;3.10;;;;;21.50;98972.00;;;;2070698;28;20218;-71
2024/02/25 02:21:25;;;;;;;5.93;3.20;;;;;21.50;98980.00;;;;2061021;28;20249;-71
2024/02/25 02:22:26;;;;;;;4.13;2.83;;;;;21.50;98984.00;;;;2071610;28;20244;-71
2024/02/25 02:23:26;;;;;;;4.85;2.97;;;;;21.50;98981.00;;;;2071022;28;20237;-71
2024/02/25 02:24:27;;;;;;;4.40;3.10;;;;;21.50;98981.00;;;;2071521;28;20639;-71
2024/02/25 02:25:27;;;;;;;5.07;3.23;;;;;21.50;98990.00;;;;2069101;28;21040;-71
2024/02/25 02:26:27;;;;;;;4.60;2.60;;;;;21.50;98985.00;;;;2060222;28;20222;-71
2024/02/25 02:27:28;;;;;;;4.37;2.83;;;;;21.50;98958.00;;;;2070884;28;20616;-71
2024/02/25 02:28:28;;;;;;;5.07;3.23;;;;;21.50;98986.00;;;;2071043;28;20593;-70
2024/02/25 02:29:28;;;;;;;3.97;2.47;;;;;21.50;98990.00;;;;2071306;28;20236;-71
2024/02/25 02:30:29;;;;;;;3.63;2.50;;;;;21.50;98984.00;;;;2062005;28;20242;-71
2024/02/25 02:31:29;;;;;;;5.03;3.17;;;;;21.50;98987.00;;;;2053272;28;20229;-71
2024/02/25 02:32:29;;;;;;;4.33;2.73;;;;;21.50;98982.00;;;;2075171;28;20202;-70
2024/02/25 02:33:30;;;;;;;5.10;3.10;;;;;21.50;98982.00;;;;2075984;28;20245;-70
2024/02/25 02:34:30;;;;;;;4.73;2.37;;;;;21.50;98983.00;;;;2075894;28;20214;-71
2024/02/25 02:35:30;;;;;;;4.50;2.73;;;;;21.50;98979.00;;;;2074898;28;20210;-70
2024/02/25 02:36:31;;;;;;;4.47;2.50;;;;;21.50;98981.00;;;;2063244;28;20249;-70
2024/02/25 02:37:31;;;;;;;3.77;2.20;;;;;21.50;98984.00;;;;2071454;28;20211;-70
2024/02/25 02:38:31;;;;;;;3.90;2.57;;;;;21.50;98978.00;;;;2072213;28;20740;-70
2024/02/25 02:39:32;;;;;;;5.97;3.20;;;;;21.50;98983.00;;;;2071578;28;20218;-70
2024/02/25 02:40:32;;;;;;;3.83;2.43;;;;;21.50;98990.00;;;;2072182;28;20218;-70
2024/02/25 02:41:33;;;;;;;3.73;2.53;;;;;21.50;98982.00;;;;2062288;28;20217;-70
2024/02/25 02:42:33;;;;;;;3.43;2.23;;;;;21.50;98986.00;;;;2068800;28;20230;-70
2024/02/25 02:43:34;;;;;;;4.63;2.40;;;;;21.40;98982.00;;;;2070347;28;20694;-70
2024/02/25 02:44:34;;;;;;;4.27;2.53;;;;;21.50;98982.00;;;;2071481;28;20214;-70
2024/02/25 02:45:36;;;;;;;3.80;2.23;;;;;21.50;98989.00;;;;2071968;28;26030;-70
2024/02/25 02:46:40;;;;;;;4.22;2.42;;;;;21.50;98973.00;;;;2062282;28;20293;-70
2024/02/25 02:47:40;;;;;;;4.57;2.58;;;;;21.40;98973.00;;;;2069855;28;20713;-70
2024/02/25 02:48:40;;;;;;;4.17;2.87;;;;;21.40;98987.00;;;;2071527;28;20221;-70
2024/02/25 02:49:41;;;;;;;4.23;2.30;;;;;21.40;98863.00;;;;2071437;28;20245;-70
2024/02/25 02:50:41;;;;;;;3.30;2.10;;;;;21.50;98980.00;;;;2071911;28;20210;-70
2024/02/25 02:51:42;;;;;;;3.63;2.10;;;;;21.50;98983.00;;;;2048340;28;20327;-71
2024/02/25 02:52:42;;;;;;;3.97;2.43;;;;;21.40;98980.00;;;;2055033;28;20221;-70
2024/02/25 02:53:42;;;;;;;3.80;2.47;;;;;21.40;98978.00;;;;2063613;28;20394;-70
2024/02/25 02:54:43;;;;;;;4.63;2.10;;;;;21.40;98974.00;;;;2071093;28;20225;-70
2024/02/25 02:55:43;;;;;;;3.60;2.10;;;;;21.50;98987.00;;;;2067883;28;20214;-71
2024/02/25 02:56:44;;;;;;;5.10;2.70;;;;;21.40;98997.00;;;;2064401;28;20243;-70
2024/02/25 02:57:44;;;;;;;5.13;2.60;;;;;21.40;98984.00;;;;2071508;28;20783;-70
2024/02/25 02:58:48;;;;;;;4.80;2.40;;;;;21.40;98989.00;;;;2070886;28;20675;-70
2024/02/25 02:59:48;;;;;;;3.65;2.55;;;;;21.40;98819.00;;;;2070171;28;20206;-71
2024/02/25 03:00:49;;;;;;;3.33;1.83;;;;;21.40;98980.00;;;;2061482;28;20233;-71
2024/02/25 03:01:50;;;;;;;4.17;2.20;;;;;21.40;98981.00;;;;2071073;28;20211;-71
2024/02/25 03:02:50;;;;;;;3.83;2.10;;;;;21.40;98916.00;;;;2078262;28;20259;-71
2024/02/25 03:03:50;;;;;;;3.00;1.90;;;;;21.40;98977.00;;;;2071571;28;20300;-70
2024/02/25 03:04:51;;;;;;;3.43;1.90;;;;;21.40;98984.00;;;;2070668;28;20210;-70
2024/02/25 03:05:51;;;;;;;3.50;2.13;;;;;21.40;98980.00;;;;2058995;28;20674;-71
2024/02/25 03:06:51;;;;;;;3.60;2.17;;;;;21.40;98988.00;;;;2069680;28;20211;-70
2024/02/25 03:07:53;;;;;;;4.10;2.17;;;;;21.40;98982.00;;;;2077064;28;20218;-71
2024/02/25 03:08:54;;;;;;;4.00;2.08;;;;;21.40;98987.00;;;;2064044;28;20978;-71
2024/02/25 03:09:54;;;;;;;3.77;2.17;;;;;21.40;98986.00;;;;2068900;28;20222;-70
2024/02/25 03:10:54;;;;;;;3.80;2.30;;;;;21.40;98981.00;;;;2052340;28;20211;-71
2024/02/25 03:11:55;;;;;;;3.80;2.30;;;;;21.40;98987.00;;;;2059482;28;20226;-71
2024/02/25 03:12:56;;;;;;;3.50;2.07;;;;;21.40;98981.00;;;;2062617;28;20215;-71
2024/02/25 03:13:56;;;;;;;3.23;1.83;;;;;21.40;98969.00;;;;2056775;28;20237;-70
2024/02/25 03:14:56;;;;;;;3.90;2.10;;;;;21.40;98972.00;;;;2053065;28;20306;-71
2024/02/25 03:15:57;;;;;;;3.83;2.23;;;;;21.40;98984.00;;;;2026936;28;20228;-70
2024/02/25 03:16:57;;;;;;;4.17;1.90;;;;;21.40;98978.00;;;;2046894;28;20229;-71
2024/02/25 03:17:57;;;;;;;3.20;1.87;;;;;21.40;98980.00;;;;2069200;28;20605;-71
2024/02/25 03:18:58;;;;;;;2.87;1.80;;;;;21.40;98889.00;;;;2070015;28;21027;-70
2024/02/25 03:19:59;;;;;;;4.70;2.17;;;;;21.30;98984.00;;;;2071049;28;20705;-70
2024/02/25 03:20:59;;;;;;;2.60;1.70;;;;;21.30;98987.00;;;;2061554;28;20232;-70
2024/02/25 03:22:00;;;;;;;3.57;2.00;;;;;21.40;98968.00;;;;2070541;28;20237;-70
2024/02/25 03:23:00;;;;;;;3.67;1.90;;;;;21.40;98982.00;;;;2071397;28;20210;-71
2024/02/25 03:24:00;;;;;;;3.50;2.10;;;;;21.40;98979.00;;;;2070525;28;20284;-70
2024/02/25 03:25:02;;;;;;;4.37;2.40;;;;;21.30;98983.00;;;;2071501;28;20206;-70
2024/02/25 03:26:04;;;;;;;2.85;1.90;;;;;21.40;98921.00;;;;2060340;28;20214;-70
2024/02/25 03:27:04;;;;;;;3.60;1.90;;;;;21.40;98982.00;;;;2071153;28;20213;-70
2024/02/25 03:28:05;;;;;;;2.93;1.80;;;;;21.40;98977.00;;;;2068106;28;20218;-70
2024/02/25 03:29:06;;;;;;;3.23;2.00;;;;;21.40;98970.00;;;;2070382;28;20276;-70
2024/02/25 03:30:07;;;;;;;5.13;1.93;;;;;21.40;98967.00;;;;2071222;28;20218;-70
2024/02/25 03:31:08;;;;;;;4.20;2.00;;;;;21.40;98984.00;;;;2051661;28;20250;-70
2024/02/25 03:32:09;;;;;;;3.30;1.80;;;;;21.30;98978.00;;;;2062409;28;20262;-70
2024/02/25 03:33:10;;;;;;;2.90;1.67;;;;;21.40;98982.00;;;;2070925;28;20226;-70
2024/02/25 03:34:10;;;;;;;3.90;2.17;;;;;21.40;98971.00;;;;2062416;28;20694;-70
2024/02/25 03:35:10;;;;;;;3.70;2.10;;;;;21.40;98975.00;;;;2062587;28;20676;-70
2024/02/25 03:36:11;;;;;;;4.20;2.20;;;;;21.30;98981.00;;;;2058219;28;20229;-71
2024/02/25 03:37:12;;;;;;;3.20;1.80;;;;;21.40;98978.00;;;;2070634;28;20221;-70
2024/02/25 03:38:12;;;;;;;3.42;1.98;;;;;21.40;98973.00;;;;2069687;28;20222;-70
2024/02/25 03:39:13;;;;;;;2.80;1.57;;;;;21.40;98972.00;;;;2071283;28;20218;-70
2024/02/25 03:40:13;;;;;;;3.47;1.67;;;;;21.40;98971.00;;;;2070996;28;20230;-71
2024/02/25 03:41:16;;;;;;;3.13;1.90;;;;;21.40;98518.00;;;;2059692;28;20329;-70
2024/02/25 03:42:16;;;;;;;2.63;1.33;;;;;21.40;98984.00;;;;2070462;28;20233;-70
2024/02/25 03:43:17;;;;;;;2.40;1.37;;;;;21.30;98983.00;;;;2066374;28;20240;-70
2024/02/25 03:44:17;;;;;;;3.17;1.80;;;;;21.30;98985.00;;;;2069451;28;20226;-70
2024/02/25 03:45:17;;;;;;;3.33;1.70;;;;;21.30;98978.00;;;;2066706;28;20253;-71
2024/02/25 03:46:18;;;;;;;3.27;1.93;;;;;21.30;98984.00;;;;2059067;28;20222;-70
2024/02/25 03:47:18;;;;;;;2.73;1.43;;;;;21.30;98982.00;;;;2069846;28;20218;-70
2024/02/25 03:48:18;;;;;;;3.10;1.70;;;;;21.30;98983.00;;;;2058933;28;20226;-70
2024/02/25 03:49:20;;;;;;;2.80;1.50;;;;;21.30;98985.00;;;;2061209;28;20215;-70
2024/02/25 03:50:21;;;;;;;2.55;1.52;;;;;21.30;98987.00;;;;2070425;28;20265;-80
2024/02/25 03:51:21;;;;;;;3.30;1.70;;;;;21.30;98972.00;;;;2060298;28;20706;-74
2024/02/25 03:52:22;;;;;;;3.43;1.57;;;;;21.30;98984.00;;;;2070700;28;20225;-73
2024/02/25 03:53:22;;;;;;;3.27;1.80;;;;;21.30;98975.00;;;;2071032;28;20225;-71
2024/02/25 03:54:22;;;;;;;3.83;1.60;;;;;21.30;98991.00;;;;2069455;28;20218;-71
2024/02/25 03:55:24;;;;;;;2.87;1.60;;;;;21.30;98973.00;;;;2069671;28;20319;-71
2024/02/25 03:56:25;;;;;;;2.40;1.25;;;;;21.30;98984.00;;;;2060404;28;20283;-71
2024/02/25 03:57:25;;;;;;;2.87;1.67;;;;;21.30;98951.00;;;;2061582;28;20254;-70
2024/02/25 03:58:25;;;;;;;3.90;1.77;;;;;21.30;98970.00;;;;2061791;28;20254;-71
2024/02/25 03:59:26;;;;;;;2.57;1.23;;;;;21.30;98985.00;;;;2070139;28;20593;-70
2024/02/25 04:00:26;;;;;;;2.53;1.37;;;;;21.30;98982.00;;;;2070627;28;20571;-71
2024/02/25 04:01:26;;;;;;;4.07;2.10;;;;;21.30;98976.00;;;;2060566;28;20990;-71
2024/02/25 04:02:27;;;;;;;2.40;1.20;;;;;21.30;98985.00;;;;2070039;28;20733;-71
2024/02/25 04:03:27;;;;;;;3.40;1.70;;;;;21.30;98975.00;;;;2062212;28;20218;-71
2024/02/25 04:04:27;;;;;;;3.07;1.53;;;;;21.30;98978.00;;;;2061508;28;20222;-72
2024/02/25 04:05:28;;;;;;;2.20;1.20;;;;;21.30;98977.00;;;;2070859;28;20246;-71
2024/02/25 04:06:28;;;;;;;2.90;1.43;;;;;21.30;98971.00;;;;2060960;28;20229;-71
2024/02/25 04:07:28;;;;;;;2.73;1.30;;;;;21.30;98982.00;;;;2068517;28;20218;-71
2024/02/25 04:08:29;;;;;;;2.87;1.33;;;;;21.30;98983.00;;;;2070157;28;20259;-71
2024/02/25 04:09:29;;;;;;;2.40;1.30;;;;;21.30;98975.00;;;;2061594;28;20874;-71
2024/02/25 04:10:30;;;;;;;2.70;1.30;;;;;21.30;98980.00;;;;2061918;28;20234;-71
2024/02/25 04:11:30;;;;;;;3.70;1.70;;;;;21.30;98969.00;;;;2060334;28;20218;-71
2024/02/25 04:12:30;;;;;;;2.67;1.40;;;;;21.20;98980.00;;;;2068398;28;20562;-71
2024/02/25 04:13:31;;;;;;;3.03;1.47;;;;;21.30;98980.00;;;;2069005;28;20267;-71
2024/02/25 04:14:32;;;;;;;2.80;1.50;;;;;21.30;98960.00;;;;2068314;28;20215;-71
2024/02/25 04:15:32;;;;;;;2.60;1.50;;;;;21.30;98975.00;;;;2062109;28;20211;-71
2024/02/25 04:16:33;;;;;;;2.60;1.23;;;;;21.30;98979.00;;;;2041880;28;20211;-71
2024/02/25 04:17:34;;;;;;;2.53;1.25;;;;;21.20;98979.00;;;;2062011;28;20306;-71
2024/02/25 04:18:34;;;;;;;2.73;1.43;;;;;21.20;98985.00;;;;2064684;28;20222;-71
2024/02/25 04:19:34;;;;;;;3.23;1.63;;;;;21.20;98976.00;;;;2069928;28;20233;-71
2024/02/25 04:20:35;;;;;;;2.50;1.20;;;;;21.30;98983.00;;;;2070091;28;20242;-71
2024/02/25 04:21:36;;;;;;;2.60;1.23;;;;;21.30;98980.00;;;;2058540;28;20229;-71
2024/02/25 04:22:36;;;;;;;2.47;1.27;;;;;21.30;98975.00;;;;2060160;28;20769;-70
2024/02/25 04:23:37;;;;;;;2.43;1.33;;;;;21.20;98981.00;;;;2061855;28;20475;-70
2024/02/25 04:24:37;;;;;;;2.57;1.17;;;;;21.20;98986.00;;;;2045735;28;20783;-70
2024/02/25 04:25:37;;;;;;;3.23;1.80;;;;;21.30;98975.00;;;;2052054;28;20219;-71
2024/02/25 04:26:38;;;;;;;2.30;1.13;;;;;21.30;98976.00;;;;2059539;28;20209;-71
2024/02/25 04:27:39;;;;;;;2.93;1.23;;;;;21.30;98981.00;;;;2061746;28;20997;-71
2024/02/25 04:28:39;;;;;;;2.75;1.35;;;;;21.20;98976.00;;;;2052592;28;20223;-70
2024/02/25 04:29:43;;;;;;;2.60;1.20;;;;;21.20;98970.00;;;;2061987;28;20222;-70
2024/02/25 04:30:44;;;;;;;2.67;1.30;;;;;21.20;98972.00;;;;2066754;28;20214;-71
2024/02/25 04:31:46;;;;;;;3.60;1.50;;;;;21.20;98978.00;;;;2063721;28;20230;-71
2024/02/25 04:32:47;;;;;;;2.60;1.23;;;;;21.20;98978.00;;;;2070947;28;20293;-70
2024/02/25 04:33:47;;;;;;;2.47;1.35;;;;;21.20;98955.00;;;;2069889;28;20222;-71
2024/02/25 04:34:47;;;;;;;2.90;1.07;;;;;21.20;98959.00;;;;2070518;28;20580;-71
2024/02/25 04:35:48;;;;;;;2.40;1.10;;;;;21.20;98980.00;;;;2060930;28;20577;-71
2024/02/25 04:36:48;;;;;;;2.30;0.90;;;;;21.20;98979.00;;;;2070434;28;20639;-70
2024/02/25 04:37:48;;;;;;;2.40;1.20;;;;;21.20;98975.00;;;;2070629;28;20682;-70
2024/02/25 04:38:49;;;;;;;2.00;0.93;;;;;21.20;98977.00;;;;2069246;28;21034;-70
2024/02/25 04:39:50;;;;;;;2.25;1.23;;;;;21.20;98985.00;;;;2069102;28;20328;-70
2024/02/25 04:40:53;;;;;;;2.60;1.07;;;;;21.20;98975.00;;;;2060835;28;20276;-71
2024/02/25 04:41:53;;;;;;;3.33;1.17;;;;;21.20;98982.00;;;;2060279;28;20227;-71
2024/02/25 04:42:54;;;;;;;2.80;1.10;;;;;21.20;98990.00;;;;2062148;28;20211;-71
2024/02/25 04:43:54;;;;;;;2.27;1.10;;;;;21.20;98986.00;;;;2069716;28;20249;-70
2024/02/25 04:44:54;;;;;;;2.57;1.33;;;;;21.20;98987.00;;;;2070988;28;20264;-71
2024/02/25 04:45:54;;;;;;;1.80;0.80;;;;;21.20;98991.00;;;;2060227;28;20222;-71
2024/02/25 04:46:55;;;;;;;2.90;1.03;;;;;21.20;98992.00;;;;2070638;28;20229;-71
2024/02/25 04:47:55;;;;;;;2.17;0.97;;;;;21.20;98983.00;;;;2068573;28;20218;-70
2024/02/25 04:48:55;;;;;;;2.43;1.00;;;;;21.20;98987.00;;;;2069451;28;20230;-71
2024/02/25 04:49:56;;;;;;;3.03;1.10;;;;;21.20;98990.00;;;;2070738;28;20222;-71
2024/02/25 04:50:56;;;;;;;2.07;0.90;;;;;21.20;98988.00;;;;2060554;28;20225;-70
2024/02/25 04:51:56;;;;;;;2.20;1.10;;;;;21.20;98992.00;;;;2061977;28;20502;-77
2024/02/25 04:52:57;;;;;;;1.93;1.00;;;;;21.20;98990.00;;;;2070788;28;20307;-75
2024/02/25 04:53:58;;;;;;;2.87;1.13;;;;;21.20;98989.00;;;;2067475;28;20238;-72
2024/02/25 04:54:58;;;;;;;2.40;1.00;;;;;21.20;98997.00;;;;2065623;28;20210;-71
2024/02/25 04:56:00;;;;;;;2.10;0.93;;;;;21.20;98998.00;;;;2054427;28;20449;-71
2024/02/25 04:57:00;;;;;;;2.17;1.00;;;;;21.20;98992.00;;;;2061885;28;20227;-71
2024/02/25 04:58:00;;;;;;;2.10;0.90;;;;;21.20;98989.00;;;;2063160;28;20230;-71
2024/02/25 04:59:01;;;;;;;2.50;1.00;;;;;21.20;98993.00;;;;2067026;28;20210;-71
2024/02/25 05:00:01;;;;;;;2.30;0.90;;;;;21.20;98994.00;;;;2070996;28;20210;-71
2024/02/25 05:01:01;;;;;;;2.23;0.90;;;;;21.20;98990.00;;;;2060763;28;20257;-71
2024/02/25 05:02:02;;;;;;;2.20;0.87;;;;;21.20;98992.00;;;;2063228;28;20229;-71
2024/02/25 05:03:02;;;;;;;2.30;1.00;;;;;21.20;98979.00;;;;2062077;28;20210;-71